Terminal Aerodrome Forecast
Issued by NWS

Home | Current Version | Previous Version | Text Only | Print | Product List | Glossary On
Versions: 1 2 3 4 5 6 7 8 9 10 11 12
000
FTUS43 KJKL 171100
TAFSME
TAF
KSME 171136Z 1712/1812 00000KT P6SM OVC009
     FM171500 33005KT P6SM SCT035
     FM180000 00000KT P6SM SCT120
     FM180600 00000KT 2SM BR SCT002
      AMD NOT SKED=

USA.gov is the U.S. government's official web portal to all federal, state and local government web resources and services.